createdAt,value
2022-11-08T00:02:22.816Z,93.36
2022-11-08T00:04:52.188Z,93.31
2022-11-08T00:10:31.829Z,94.08
2022-11-08T00:13:13.988Z,93.96
2022-11-08T00:15:43.294Z,93.78
2022-11-08T00:18:12.927Z,93.51
2022-11-08T00:20:42.209Z,93.50
2022-11-08T00:23:13.996Z,93.64
2022-11-08T00:25:45.879Z,93.49
2022-11-08T00:28:15.519Z,93.40
2022-11-08T00:30:44.936Z,93.26
2022-11-08T00:35:49.209Z,93.49
2022-11-08T00:38:18.541Z,93.31
2022-11-08T00:43:27.363Z,93.11
2022-11-08T00:45:56.590Z,93.56
2022-11-08T00:48:26.147Z,93.95
2022-11-08T00:51:03.883Z,93.98
2022-11-08T00:53:33.572Z,93.50
2022-11-08T00:56:06.911Z,93.57
2022-11-08T00:58:36.568Z,94.08
2022-11-08T01:01:14.018Z,94.13
2022-11-08T01:03:43.499Z,93.57
2022-11-08T01:06:14.192Z,93.72
2022-11-08T01:08:49.395Z,93.78
2022-11-08T01:11:24.643Z,93.61
2022-11-08T01:13:59.939Z,93.71
2022-11-08T01:16:32.663Z,94.07
2022-11-08T01:19:02.367Z,93.86
2022-11-08T01:21:31.833Z,94.10
2022-11-08T01:24:01.038Z,93.96
2022-11-08T01:26:32.759Z,94.12
2022-11-08T01:29:01.632Z,94.21
2022-11-08T01:31:38.535Z,93.39
2022-11-08T01:34:07.833Z,93.65
2022-11-08T01:36:36.956Z,93.68
2022-11-08T01:39:06.558Z,93.84
2022-11-08T01:41:37.676Z,94.25
2022-11-08T01:44:07.355Z,94.29
2022-11-08T01:46:41.991Z,94.70
2022-11-08T01:49:50.296Z,94.54
2022-11-08T01:52:26.753Z,94.58
2022-11-08T01:58:02.448Z,94.75
2022-11-08T02:00:32.146Z,94.96
2022-11-08T02:03:02.784Z,95.05
2022-11-08T02:05:33.160Z,95.22
2022-11-08T02:08:12.893Z,94.79
2022-11-08T02:10:44.467Z,95.16
2022-11-08T02:13:17.646Z,95.38
2022-11-08T02:15:47.000Z,95.59
2022-11-08T02:18:17.676Z,95.54
2022-11-08T02:20:59.832Z,95.77
2022-11-08T02:23:31.948Z,95.81
2022-11-08T02:26:03.836Z,95.38
2022-11-08T02:28:39.487Z,95.42
2022-11-08T02:31:10.943Z,95.57
2022-11-08T02:33:41.009Z,95.49
2022-11-08T02:36:17.728Z,95.78
2022-11-08T02:38:54.959Z,95.62
2022-11-08T02:41:31.190Z,95.51
2022-11-08T02:44:00.458Z,94.82
2022-11-08T02:46:29.669Z,95.11
2022-11-08T02:49:03.918Z,95.64
2022-11-08T02:51:32.988Z,95.77
2022-11-08T02:54:02.845Z,95.95
2022-11-08T02:56:34.054Z,95.85
2022-11-08T02:59:03.348Z,95.71
2022-11-08T03:01:32.648Z,95.56
2022-11-08T03:04:07.383Z,95.82
2022-11-08T03:06:36.544Z,95.82
2022-11-08T03:09:06.190Z,96.01
2022-11-08T03:11:42.349Z,95.95
2022-11-08T03:14:11.632Z,96.08
2022-11-08T03:16:40.763Z,96.38
2022-11-08T03:19:11.756Z,96.01
2022-11-08T03:21:41.176Z,96.12
2022-11-08T03:24:18.059Z,96.14
2022-11-08T03:26:49.471Z,96.53
2022-11-08T03:29:18.723Z,96.37
2022-11-08T03:31:52.951Z,96.37
2022-11-08T03:34:22.429Z,96.60
2022-11-08T03:36:52.700Z,96.76
2022-11-08T03:39:21.988Z,96.81
2022-11-08T03:41:53.340Z,96.90
2022-11-08T03:44:25.114Z,97.08
2022-11-08T03:46:59.994Z,96.92
2022-11-08T03:49:29.858Z,96.82
2022-11-08T03:52:10.008Z,96.82
2022-11-08T03:54:39.526Z,96.87
2022-11-08T03:57:14.255Z,97.14
2022-11-08T03:59:45.909Z,96.97
2022-11-08T04:02:20.698Z,96.84
2022-11-08T04:04:50.909Z,97.14
2022-11-08T04:07:20.048Z,97.79
2022-11-08T04:09:54.403Z,97.71
2022-11-08T04:12:38.609Z,97.75
2022-11-08T04:15:19.348Z,97.76
2022-11-08T04:18:08.312Z,97.50
2022-11-08T04:23:40.130Z,97.87
2022-11-08T04:26:11.271Z,98.31
2022-11-08T04:28:43.948Z,98.32
2022-11-08T04:31:15.462Z,98.35
2022-11-08T04:33:45.004Z,98.36
2022-11-08T04:36:15.520Z,98.54
2022-11-08T04:38:45.115Z,98.75
2022-11-08T04:43:54.858Z,99.02
2022-11-08T04:46:26.620Z,98.99
2022-11-08T04:48:56.568Z,99.50
2022-11-08T04:51:28.465Z,98.44
2022-11-08T04:53:59.195Z,98.42
2022-11-08T04:56:29.907Z,98.22
2022-11-08T04:59:02.571Z,98.85
2022-11-08T05:01:33.270Z,98.80
2022-11-08T05:04:07.752Z,98.62
2022-11-08T05:06:37.211Z,99.20
2022-11-08T05:09:13.830Z,99.15
2022-11-08T05:11:43.097Z,98.83
2022-11-08T05:14:19.282Z,98.59
2022-11-08T05:16:48.875Z,98.74
2022-11-08T05:19:43.869Z,98.76
2022-11-08T05:22:39.981Z,98.83
2022-11-08T05:25:10.281Z,98.93
2022-11-08T05:27:39.420Z,98.48
2022-11-08T05:30:11.796Z,98.68
2022-11-08T05:32:41.049Z,98.66
2022-11-08T05:35:10.348Z,98.75
2022-11-08T05:37:43.878Z,98.89
2022-11-08T05:40:13.849Z,99.06
2022-11-08T05:42:44.980Z,99.12
2022-11-08T05:45:16.268Z,99.22
2022-11-08T05:47:49.182Z,99.36
2022-11-08T05:50:20.154Z,99.29
2022-11-08T05:52:54.337Z,98.85
2022-11-08T05:55:23.786Z,99.06
2022-11-08T05:57:54.560Z,99.16
2022-11-08T06:00:26.739Z,99.69
2022-11-08T06:02:55.990Z,99.49
2022-11-08T06:05:25.067Z,99.47
2022-11-08T06:07:56.654Z,98.93
2022-11-08T06:10:26.202Z,98.98
2022-11-08T06:12:59.991Z,99.11
2022-11-08T06:15:31.369Z,99.09
2022-11-08T06:18:04.180Z,99.24
2022-11-08T06:20:34.589Z,98.89
2022-11-08T06:23:04.010Z,98.82
2022-11-08T06:25:41.105Z,98.99
2022-11-08T06:28:14.142Z,98.50
2022-11-08T06:30:45.442Z,98.78
2022-11-08T06:33:20.186Z,98.58
2022-11-08T06:35:54.946Z,98.90
2022-11-08T06:38:24.262Z,98.71
2022-11-08T06:40:53.652Z,98.90
2022-11-08T06:43:28.346Z,98.29
2022-11-08T06:46:02.550Z,98.47
2022-11-08T06:48:35.843Z,97.93
2022-11-08T06:51:10.690Z,98.53
2022-11-08T06:53:40.397Z,97.82
2022-11-08T06:56:09.956Z,98.13
2022-11-08T06:58:39.247Z,97.67
2022-11-08T07:01:13.192Z,97.62
2022-11-08T07:03:43.236Z,97.85
2022-11-08T07:06:12.520Z,98.20
2022-11-08T07:08:41.678Z,97.35
2022-11-08T07:11:10.960Z,97.70
2022-11-08T07:13:40.130Z,97.79
2022-11-08T07:16:11.567Z,97.53
2022-11-08T07:18:40.956Z,97.77
2022-11-08T07:21:15.116Z,97.47
2022-11-08T07:23:44.647Z,97.97
2022-11-08T07:26:13.695Z,98.08
2022-11-08T07:28:43.037Z,97.61
2022-11-08T07:31:14.815Z,97.45
2022-11-08T07:33:49.257Z,97.72
2022-11-08T07:36:18.411Z,97.56
2022-11-08T07:39:02.473Z,97.48
2022-11-08T07:41:34.532Z,97.15
2022-11-08T07:44:08.849Z,97.42
2022-11-08T07:46:40.125Z,97.43
2022-11-08T07:49:09.265Z,97.05
2022-11-08T07:51:38.452Z,97.26
2022-11-08T07:54:07.801Z,97.28
2022-11-08T07:56:37.068Z,97.46
2022-11-08T07:59:07.960Z,97.34
2022-11-08T08:01:49.595Z,97.18
2022-11-08T08:04:18.776Z,96.77
2022-11-08T08:06:47.897Z,96.91
2022-11-08T08:11:53.930Z,96.64
2022-11-08T08:14:23.788Z,96.72
2022-11-08T08:16:55.175Z,96.38
2022-11-08T08:19:24.361Z,96.10
2022-11-08T08:21:58.788Z,95.72
2022-11-08T08:24:28.539Z,95.48
2022-11-08T08:26:57.640Z,95.04
2022-11-08T08:29:27.053Z,95.06
2022-11-08T08:31:58.277Z,94.75
2022-11-08T08:34:27.736Z,95.17
2022-11-08T08:36:56.860Z,95.51
2022-11-08T08:39:26.571Z,95.38
2022-11-08T08:44:39.981Z,94.98
2022-11-08T08:47:11.038Z,95.24
2022-11-08T08:49:40.195Z,94.69
2022-11-08T08:52:10.847Z,94.75
2022-11-08T08:54:45.035Z,94.57
2022-11-08T08:57:14.520Z,94.70
2022-11-08T09:02:39.776Z,94.21
2022-11-08T09:05:13.123Z,94.42
2022-11-08T09:07:43.372Z,94.73
2022-11-08T09:10:13.048Z,94.60
2022-11-08T09:12:42.221Z,94.53
2022-11-08T09:15:12.547Z,95.07
2022-11-08T09:17:43.925Z,94.56
2022-11-08T09:20:14.528Z,94.73
2022-11-08T09:22:43.690Z,94.80
2022-11-08T09:25:13.196Z,95.30
2022-11-08T09:27:42.552Z,94.94
2022-11-08T09:30:12.015Z,94.98
2022-11-08T09:35:32.993Z,94.65
2022-11-08T09:38:02.337Z,94.87
2022-11-08T09:40:35.173Z,94.52
2022-11-08T09:43:22.757Z,94.66
2022-11-08T09:45:55.566Z,94.69
2022-11-08T09:48:31.735Z,94.95
2022-11-08T09:51:06.011Z,95.00
2022-11-08T09:53:42.786Z,95.29
2022-11-08T09:56:18.437Z,95.05
2022-11-08T09:58:53.943Z,95.55
2022-11-08T10:01:27.283Z,95.11
2022-11-08T10:04:01.905Z,95.24
2022-11-08T10:06:54.058Z,95.71
2022-11-08T10:09:46.201Z,95.17
2022-11-08T10:12:23.844Z,95.12
2022-11-08T10:15:07.649Z,95.82
2022-11-08T10:18:06.740Z,95.33
2022-11-08T10:20:54.570Z,95.50
2022-11-08T10:23:29.917Z,95.19
2022-11-08T10:26:02.553Z,95.19
2022-11-08T10:28:37.863Z,95.42
2022-11-08T10:31:08.280Z,95.60
2022-11-08T10:33:43.527Z,95.20
2022-11-08T10:36:21.993Z,95.54
2022-11-08T10:38:59.382Z,95.27
2022-11-08T10:41:36.709Z,95.34
2022-11-08T10:44:08.344Z,95.57
2022-11-08T10:46:44.425Z,95.53
2022-11-08T10:49:18.485Z,95.78
2022-11-08T10:51:58.755Z,95.71
2022-11-08T10:54:43.757Z,95.99
2022-11-08T10:57:15.112Z,95.97
2022-11-08T10:59:45.279Z,95.82
2022-11-08T11:02:30.303Z,96.53
2022-11-08T11:05:21.776Z,96.47
2022-11-08T11:08:04.079Z,96.39
2022-11-08T11:10:34.964Z,95.95
2022-11-08T11:13:12.619Z,95.96
2022-11-08T11:15:48.335Z,96.08
2022-11-08T11:18:25.852Z,96.47
2022-11-08T11:21:11.560Z,96.30
2022-11-08T11:23:46.152Z,96.09
2022-11-08T11:26:29.480Z,96.58
2022-11-08T11:29:12.835Z,96.65
2022-11-08T11:31:43.691Z,96.30
2022-11-08T11:34:44.672Z,96.73
2022-11-08T11:37:22.365Z,96.58
2022-11-08T11:40:05.331Z,96.24
2022-11-08T11:42:48.092Z,96.50
2022-11-08T11:45:21.682Z,96.50
2022-11-08T11:47:54.020Z,96.13
2022-11-08T11:50:31.008Z,95.88
2022-11-08T11:53:04.157Z,96.02
2022-11-08T11:55:51.046Z,96.46
2022-11-08T11:58:38.474Z,96.50
2022-11-08T12:01:18.383Z,95.97
2022-11-08T12:04:03.696Z,96.39
2022-11-08T12:06:44.861Z,96.36
2022-11-08T12:09:30.094Z,96.74
2022-11-08T12:12:16.373Z,96.94
2022-11-08T12:15:02.450Z,97.14
2022-11-08T12:18:09.058Z,97.26
2022-11-08T12:20:52.390Z,96.91
2022-11-08T12:23:39.691Z,97.01
2022-11-08T12:26:20.962Z,97.08
2022-11-08T12:29:04.980Z,97.38
2022-11-08T12:31:37.370Z,97.09
2022-11-08T12:34:20.542Z,97.45
2022-11-08T12:37:05.612Z,97.47
2022-11-08T12:39:40.486Z,97.53
2022-11-08T12:42:22.495Z,97.67
2022-11-08T12:45:15.024Z,97.34
2022-11-08T12:47:48.452Z,97.56
2022-11-08T12:55:48.998Z,96.12
2022-11-08T12:58:34.499Z,97.48
2022-11-08T13:01:08.600Z,97.70
2022-11-08T13:04:00.561Z,97.88
2022-11-08T13:06:41.185Z,98.10
2022-11-08T13:09:25.562Z,98.17
2022-11-08T13:12:04.147Z,98.43
2022-11-08T13:14:40.043Z,97.75
2022-11-08T13:17:26.442Z,98.42
2022-11-08T13:20:04.494Z,98.01
2022-11-08T13:23:02.048Z,98.94
2022-11-08T13:25:41.711Z,98.48
2022-11-08T13:28:41.156Z,98.58
2022-11-08T13:31:32.625Z,98.64
2022-11-08T13:34:27.040Z,98.65
2022-11-08T13:37:08.033Z,98.15
2022-11-08T13:39:59.816Z,98.16
2022-11-08T13:42:41.521Z,98.07
2022-11-08T13:45:36.690Z,98.17
2022-11-08T13:48:22.883Z,98.01
2022-11-08T13:50:54.518Z,98.10
2022-11-08T13:53:49.370Z,98.59
2022-11-08T13:56:52.352Z,98.00
2022-11-08T13:59:51.410Z,98.36
2022-11-08T14:02:39.307Z,98.25
2022-11-08T14:05:33.327Z,98.57
2022-11-08T14:11:16.352Z,98.07
2022-11-08T14:14:11.208Z,98.73
2022-11-08T14:16:49.738Z,98.25
2022-11-08T14:19:28.362Z,98.14
2022-11-08T14:21:59.744Z,98.73
2022-11-08T14:24:37.256Z,98.08
2022-11-08T14:27:06.632Z,98.51
2022-11-08T14:29:40.819Z,98.40
2022-11-08T14:32:18.905Z,98.44
2022-11-08T14:34:50.093Z,98.55
2022-11-08T14:37:25.194Z,98.64
2022-11-08T14:39:59.429Z,98.56
2022-11-08T14:42:28.674Z,98.81
2022-11-08T14:45:00.250Z,98.94
2022-11-08T14:47:32.025Z,98.81
2022-11-08T14:50:03.511Z,99.19
2022-11-08T14:52:34.599Z,98.75
2022-11-08T14:55:07.233Z,99.09
2022-11-08T14:57:38.222Z,99.12
2022-11-08T15:00:16.936Z,99.23
2022-11-08T15:02:49.165Z,99.55
2022-11-08T15:05:40.610Z,99.61
2022-11-08T15:08:24.132Z,99.61
2022-11-08T15:11:00.741Z,99.02
2022-11-08T15:13:31.848Z,99.25
2022-11-08T15:16:08.065Z,99.36
2022-11-08T15:18:39.602Z,99.34
2022-11-08T15:21:28.426Z,100.00
2022-11-08T15:24:12.935Z,99.39
2022-11-08T15:27:00.453Z,99.53
2022-11-08T15:29:29.535Z,99.38
2022-11-08T15:32:02.210Z,99.72
2022-11-08T15:34:39.356Z,99.87
2022-11-08T15:37:28.839Z,100.00
2022-11-08T15:40:01.844Z,99.80
2022-11-08T15:42:34.738Z,99.73
2022-11-08T15:45:06.136Z,100.00
2022-11-08T15:50:30.862Z,100.00
2022-11-08T15:53:04.253Z,100.00
2022-11-08T15:55:37.761Z,100.00
2022-11-08T15:58:12.476Z,100.00
2022-11-08T16:00:47.625Z,100.00
2022-11-08T16:03:17.344Z,100.00
2022-11-08T16:05:46.618Z,99.95
2022-11-08T16:08:20.956Z,100.00
2022-11-08T16:10:53.097Z,100.00
2022-11-08T16:13:28.182Z,100.00
2022-11-08T16:15:57.715Z,100.00
2022-11-08T16:18:27.073Z,100.00
2022-11-08T16:20:56.303Z,100.00
2022-11-08T16:23:27.513Z,100.00
2022-11-08T16:26:00.489Z,100.00
2022-11-08T16:28:33.832Z,100.00
2022-11-08T16:31:10.640Z,100.00
2022-11-08T16:33:39.821Z,100.00
2022-11-08T16:36:19.672Z,100.00
2022-11-08T16:38:56.108Z,100.00
2022-11-08T16:41:26.892Z,100.00
2022-11-08T16:43:56.188Z,100.00
2022-11-08T16:46:31.052Z,100.00
2022-11-08T16:49:01.803Z,100.00
2022-11-08T16:51:31.030Z,100.00
2022-11-08T16:54:04.752Z,100.00
2022-11-08T16:56:34.046Z,100.00
2022-11-08T16:59:03.389Z,100.00
2022-11-08T17:01:35.294Z,100.00
2022-11-08T17:04:04.223Z,100.00
2022-11-08T17:06:33.497Z,100.00
2022-11-08T17:09:05.080Z,100.00
2022-11-08T17:11:34.522Z,100.00
2022-11-08T17:14:04.052Z,100.00
2022-11-08T17:16:33.325Z,100.00
2022-11-08T17:19:02.487Z,100.00
2022-11-08T17:21:44.628Z,100.00
2022-11-08T17:24:21.805Z,100.00
2022-11-08T17:26:56.987Z,100.00
2022-11-08T17:29:26.634Z,100.00
2022-11-08T17:31:55.780Z,100.00
2022-11-08T17:34:25.123Z,100.00
2022-11-08T17:36:54.564Z,100.00
2022-11-08T17:39:25.799Z,100.00
2022-11-08T17:42:00.193Z,100.00
2022-11-08T17:44:30.610Z,100.00
2022-11-08T17:46:59.726Z,100.00
2022-11-08T17:49:28.865Z,100.00
2022-11-08T17:51:58.028Z,100.00
2022-11-08T17:54:34.143Z,100.00
2022-11-08T17:57:03.426Z,100.00
2022-11-08T17:59:32.579Z,100.00
2022-11-08T18:02:02.934Z,100.00
2022-11-08T18:04:32.114Z,100.00
2022-11-08T18:07:01.433Z,100.00
2022-11-08T18:09:43.401Z,100.00
2022-11-08T18:12:12.636Z,100.00
2022-11-08T18:14:41.790Z,100.00
2022-11-08T18:17:11.257Z,100.00
2022-11-08T18:19:40.705Z,100.00
2022-11-08T18:22:09.871Z,100.00
2022-11-08T18:24:42.745Z,100.00
2022-11-08T18:27:14.386Z,100.00
2022-11-08T18:29:48.650Z,100.00
2022-11-08T18:32:19.791Z,100.00
2022-11-08T18:34:49.170Z,100.00
2022-11-08T18:37:18.677Z,100.00
2022-11-08T18:39:54.852Z,100.00
2022-11-08T18:42:24.239Z,100.00
2022-11-08T18:44:53.604Z,100.00
2022-11-08T18:47:23.074Z,100.00
2022-11-08T18:49:55.077Z,100.00
2022-11-08T18:52:24.440Z,100.00
2022-11-08T18:54:55.717Z,100.00
2022-11-08T18:57:30.379Z,100.00
2022-11-08T19:00:01.210Z,100.00
2022-11-08T19:02:33.284Z,100.00
2022-11-08T19:05:07.794Z,100.00
2022-11-08T19:07:37.364Z,100.00
2022-11-08T19:10:10.227Z,100.00
2022-11-08T19:12:39.588Z,100.00
2022-11-08T19:15:11.264Z,100.00
2022-11-08T19:17:40.700Z,100.00
2022-11-08T19:20:11.153Z,100.00
2022-11-08T19:22:45.710Z,100.00
2022-11-08T19:25:18.282Z,100.00
2022-11-08T19:27:47.898Z,100.00
2022-11-08T19:30:17.313Z,100.00
2022-11-08T19:32:46.648Z,100.00
2022-11-08T19:35:16.358Z,100.00
2022-11-08T19:37:45.866Z,100.00
2022-11-08T19:40:17.379Z,100.00
2022-11-08T19:42:46.768Z,100.00
2022-11-08T19:45:16.193Z,100.00
2022-11-08T19:47:52.033Z,100.00
2022-11-08T19:50:23.564Z,100.00
2022-11-08T19:52:52.739Z,100.00
2022-11-08T19:55:24.019Z,100.00
2022-11-08T19:57:53.194Z,100.00
2022-11-08T20:00:22.605Z,100.00
2022-11-08T20:02:54.192Z,100.00
2022-11-08T20:05:23.865Z,100.00
2022-11-08T20:08:01.454Z,100.00
2022-11-08T20:10:32.837Z,100.00
2022-11-08T20:13:10.152Z,100.00
2022-11-08T20:15:39.827Z,100.00
2022-11-08T20:18:09.197Z,100.00
2022-11-08T20:20:44.723Z,100.00
2022-11-08T20:23:18.315Z,100.00
2022-11-08T20:25:49.669Z,100.00
2022-11-08T20:28:19.322Z,100.00
2022-11-08T20:30:49.206Z,100.00
2022-11-08T20:33:18.657Z,100.00
2022-11-08T20:35:47.820Z,100.00
2022-11-08T20:38:18.430Z,100.00
2022-11-08T20:40:50.163Z,100.00
2022-11-08T20:43:34.061Z,100.00
2022-11-08T20:46:10.389Z,100.00
2022-11-08T20:48:42.834Z,100.00
2022-11-08T20:53:55.058Z,100.00
2022-11-08T20:56:28.344Z,100.00
2022-11-08T20:58:58.137Z,100.00
2022-11-08T21:01:30.346Z,100.00
2022-11-08T21:04:00.483Z,100.00
2022-11-08T21:06:36.375Z,100.00
2022-11-08T21:09:33.047Z,100.00
2022-11-08T21:12:05.396Z,100.00
2022-11-08T21:17:26.136Z,100.00
2022-11-08T21:20:01.030Z,100.00
2022-11-08T21:22:30.316Z,100.00
2022-11-08T21:25:03.260Z,100.00
2022-11-08T21:27:41.640Z,100.00
2022-11-08T21:30:17.337Z,100.00
2022-11-08T21:32:46.641Z,100.00
2022-11-08T21:35:15.937Z,100.00
2022-11-08T21:37:45.382Z,100.00
2022-11-08T21:40:15.280Z,100.00
2022-11-08T21:42:48.834Z,100.00
2022-11-08T21:45:18.721Z,100.00
2022-11-08T21:47:51.779Z,100.00
2022-11-08T21:50:22.130Z,100.00
2022-11-08T21:52:56.420Z,100.00
2022-11-08T21:55:25.494Z,100.00
2022-11-08T21:57:56.848Z,100.00
2022-11-08T22:00:26.356Z,100.00
2022-11-08T22:02:56.028Z,100.00
2022-11-08T22:05:30.688Z,100.00
2022-11-08T22:08:00.104Z,100.00
2022-11-08T22:10:29.599Z,100.00
2022-11-08T22:15:35.975Z,100.00
2022-11-08T22:18:15.193Z,100.00
2022-11-08T22:21:01.156Z,100.00
2022-11-08T22:23:30.487Z,100.00
2022-11-08T22:25:59.944Z,100.00
2022-11-08T22:28:31.631Z,100.00
2022-11-08T22:31:00.897Z,100.00
2022-11-08T22:33:30.165Z,100.00
2022-11-08T22:36:04.652Z,100.00
2022-11-08T22:38:33.992Z,100.00
2022-11-08T22:41:03.321Z,100.00
2022-11-08T22:43:35.595Z,100.00
2022-11-08T22:46:05.616Z,100.00
2022-11-08T22:48:34.756Z,100.00
2022-11-08T22:53:44.950Z,100.00
2022-11-08T22:56:14.065Z,100.00
2022-11-08T22:58:45.530Z,100.00
2022-11-08T23:01:16.212Z,100.00
2022-11-08T23:03:47.577Z,100.00
2022-11-08T23:06:17.716Z,100.00
2022-11-08T23:08:48.951Z,100.00
2022-11-08T23:11:33.655Z,100.00
2022-11-08T23:14:17.913Z,100.00
2022-11-08T23:16:47.945Z,100.00
2022-11-08T23:19:38.097Z,100.00
2022-11-08T23:22:26.808Z,100.00
2022-11-08T23:24:56.247Z,100.00
2022-11-08T23:27:38.948Z,100.00
2022-11-08T23:30:26.992Z,100.00
2022-11-08T23:32:56.196Z,100.00
2022-11-08T23:35:25.562Z,100.00
2022-11-08T23:37:54.960Z,100.00
2022-11-08T23:40:37.092Z,100.00
2022-11-08T23:43:25.088Z,100.00
2022-11-08T23:45:56.320Z,100.00
2022-11-08T23:48:26.260Z,100.00
2022-11-08T23:50:56.895Z,100.00
2022-11-08T23:53:26.881Z,100.00
2022-11-08T23:55:56.574Z,100.00
2022-11-08T23:58:30.843Z,100.00
